sensor_id;sensor_type;location;lat;lon;timestamp;P1;durP1;ratioP1;P2;durP2;ratioP2
11191;SDS011;5652;48.406;10.820;2022-08-07T00:01:21;14.80;;;10.98;;
11191;SDS011;5652;48.406;10.820;2022-08-07T00:03:48;17.27;;;10.65;;
11191;SDS011;5652;48.406;10.820;2022-08-07T00:06:15;12.75;;;9.45;;
11191;SDS011;5652;48.406;10.820;2022-08-07T00:08:42;13.47;;;9.40;;
11191;SDS011;5652;48.406;10.820;2022-08-07T00:11:09;12.80;;;9.70;;
11191;SDS011;5652;48.406;10.820;2022-08-07T00:13:36;14.10;;;10.30;;
11191;SDS011;5652;48.406;10.820;2022-08-07T00:16:05;15.13;;;11.05;;
11191;SDS011;5652;48.406;10.820;2022-08-07T00:18:32;14.68;;;10.52;;
11191;SDS011;5652;48.406;10.820;2022-08-07T00:21:01;19.13;;;10.85;;
11191;SDS011;5652;48.406;10.820;2022-08-07T00:23:28;14.93;;;10.98;;
11191;SDS011;5652;48.406;10.820;2022-08-07T00:25:55;14.38;;;10.27;;
11191;SDS011;5652;48.406;10.820;2022-08-07T00:28:23;13.45;;;10.50;;
11191;SDS011;5652;48.406;10.820;2022-08-07T00:30:50;13.70;;;10.25;;
11191;SDS011;5652;48.406;10.820;2022-08-07T00:33:18;14.95;;;10.38;;
11191;SDS011;5652;48.406;10.820;2022-08-07T00:35:50;12.88;;;9.52;;
11191;SDS011;5652;48.406;10.820;2022-08-07T00:38:17;13.80;;;9.98;;
11191;SDS011;5652;48.406;10.820;2022-08-07T00:40:44;13.68;;;9.23;;
11191;SDS011;5652;48.406;10.820;2022-08-07T00:43:12;14.23;;;9.60;;
11191;SDS011;5652;48.406;10.820;2022-08-07T00:45:40;12.63;;;9.23;;
11191;SDS011;5652;48.406;10.820;2022-08-07T00:48:07;13.80;;;9.15;;
11191;SDS011;5652;48.406;10.820;2022-08-07T00:50:36;14.43;;;10.10;;
11191;SDS011;5652;48.406;10.820;2022-08-07T00:53:03;13.10;;;9.98;;
11191;SDS011;5652;48.406;10.820;2022-08-07T00:55:31;13.85;;;10.48;;
11191;SDS011;5652;48.406;10.820;2022-08-07T00:57:58;13.77;;;10.70;;
11191;SDS011;5652;48.406;10.820;2022-08-07T01:00:26;14.52;;;11.20;;
11191;SDS011;5652;48.406;10.820;2022-08-07T01:02:53;13.45;;;11.27;;
11191;SDS011;5652;48.406;10.820;2022-08-07T01:05:20;13.48;;;10.75;;
11191;SDS011;5652;48.406;10.820;2022-08-07T01:07:49;15.65;;;10.75;;
11191;SDS011;5652;48.406;10.820;2022-08-07T01:10:16;14.10;;;11.38;;
11191;SDS011;5652;48.406;10.820;2022-08-07T01:12:44;15.55;;;11.02;;
11191;SDS011;5652;48.406;10.820;2022-08-07T01:15:12;14.88;;;11.10;;
11191;SDS011;5652;48.406;10.820;2022-08-07T01:17:39;14.82;;;11.20;;
11191;SDS011;5652;48.406;10.820;2022-08-07T01:20:07;15.43;;;11.50;;
11191;SDS011;5652;48.406;10.820;2022-08-07T01:22:36;13.95;;;10.60;;
11191;SDS011;5652;48.406;10.820;2022-08-07T01:25:04;13.43;;;9.95;;
11191;SDS011;5652;48.406;10.820;2022-08-07T01:27:32;13.90;;;10.82;;
11191;SDS011;5652;48.406;10.820;2022-08-07T01:29:59;14.53;;;10.43;;
11191;SDS011;5652;48.406;10.820;2022-08-07T01:32:26;14.38;;;10.00;;
11191;SDS011;5652;48.406;10.820;2022-08-07T01:34:53;12.18;;;9.73;;
11191;SDS011;5652;48.406;10.820;2022-08-07T01:37:21;11.40;;;9.13;;
11191;SDS011;5652;48.406;10.820;2022-08-07T01:39:49;11.70;;;9.07;;
11191;SDS011;5652;48.406;10.820;2022-08-07T01:42:16;12.50;;;9.35;;
11191;SDS011;5652;48.406;10.820;2022-08-07T01:44:44;11.13;;;8.55;;
11191;SDS011;5652;48.406;10.820;2022-08-07T01:47:11;11.07;;;8.70;;
11191;SDS011;5652;48.406;10.820;2022-08-07T01:49:38;11.63;;;8.77;;
11191;SDS011;5652;48.406;10.820;2022-08-07T01:52:05;12.35;;;8.27;;
11191;SDS011;5652;48.406;10.820;2022-08-07T01:54:35;13.38;;;9.02;;
11191;SDS011;5652;48.406;10.820;2022-08-07T01:57:04;11.18;;;8.90;;
11191;SDS011;5652;48.406;10.820;2022-08-07T01:59:35;11.27;;;9.17;;
11191;SDS011;5652;48.406;10.820;2022-08-07T02:02:08;10.63;;;8.40;;
11191;SDS011;5652;48.406;10.820;2022-08-07T02:04:38;11.68;;;8.73;;
11191;SDS011;5652;48.406;10.820;2022-08-07T02:07:05;11.55;;;9.18;;
11191;SDS011;5652;48.406;10.820;2022-08-07T02:09:33;13.20;;;8.77;;
11191;SDS011;5652;48.406;10.820;2022-08-07T02:12:00;12.75;;;8.77;;
11191;SDS011;5652;48.406;10.820;2022-08-07T02:14:42;11.63;;;8.70;;
11191;SDS011;5652;48.406;10.820;2022-08-07T02:17:10;15.03;;;8.93;;
11191;SDS011;5652;48.406;10.820;2022-08-07T02:19:40;11.82;;;8.80;;
11191;SDS011;5652;48.406;10.820;2022-08-07T02:22:08;13.68;;;9.15;;
11191;SDS011;5652;48.406;10.820;2022-08-07T02:24:36;11.75;;;8.88;;
11191;SDS011;5652;48.406;10.820;2022-08-07T02:27:03;13.23;;;8.80;;
11191;SDS011;5652;48.406;10.820;2022-08-07T02:29:32;13.83;;;8.87;;
11191;SDS011;5652;48.406;10.820;2022-08-07T02:32:01;12.40;;;9.40;;
11191;SDS011;5652;48.406;10.820;2022-08-07T02:34:29;13.55;;;9.50;;
11191;SDS011;5652;48.406;10.820;2022-08-07T02:36:57;13.82;;;9.45;;
11191;SDS011;5652;48.406;10.820;2022-08-07T02:39:25;12.15;;;9.38;;
11191;SDS011;5652;48.406;10.820;2022-08-07T02:41:52;11.85;;;9.00;;
11191;SDS011;5652;48.406;10.820;2022-08-07T02:44:19;14.80;;;9.15;;
11191;SDS011;5652;48.406;10.820;2022-08-07T02:46:47;13.45;;;9.52;;
11191;SDS011;5652;48.406;10.820;2022-08-07T02:49:18;12.52;;;9.18;;
11191;SDS011;5652;48.406;10.820;2022-08-07T02:51:45;15.15;;;9.68;;
11191;SDS011;5652;48.406;10.820;2022-08-07T02:54:12;12.65;;;9.70;;
11191;SDS011;5652;48.406;10.820;2022-08-07T02:56:41;15.45;;;9.73;;
11191;SDS011;5652;48.406;10.820;2022-08-07T02:59:09;14.30;;;9.63;;
11191;SDS011;5652;48.406;10.820;2022-08-07T03:01:36;13.85;;;10.00;;
11191;SDS011;5652;48.406;10.820;2022-08-07T03:04:04;19.10;;;11.63;;
11191;SDS011;5652;48.406;10.820;2022-08-07T03:06:33;18.10;;;11.57;;
11191;SDS011;5652;48.406;10.820;2022-08-07T03:09:01;17.65;;;10.18;;
11191;SDS011;5652;48.406;10.820;2022-08-07T03:11:28;17.33;;;10.87;;
11191;SDS011;5652;48.406;10.820;2022-08-07T03:13:55;15.70;;;11.10;;
11191;SDS011;5652;48.406;10.820;2022-08-07T03:16:23;18.63;;;11.63;;
11191;SDS011;5652;48.406;10.820;2022-08-07T03:18:51;15.98;;;11.55;;
11191;SDS011;5652;48.406;10.820;2022-08-07T03:21:18;17.10;;;10.73;;
11191;SDS011;5652;48.406;10.820;2022-08-07T03:23:47;18.67;;;10.73;;
11191;SDS011;5652;48.406;10.820;2022-08-07T03:26:17;18.15;;;11.40;;
11191;SDS011;5652;48.406;10.820;2022-08-07T03:28:45;17.60;;;10.73;;
11191;SDS011;5652;48.406;10.820;2022-08-07T03:31:13;14.27;;;10.07;;
11191;SDS011;5652;48.406;10.820;2022-08-07T03:33:46;14.93;;;10.82;;
11191;SDS011;5652;48.406;10.820;2022-08-07T03:36:14;14.35;;;9.75;;
11191;SDS011;5652;48.406;10.820;2022-08-07T03:38:43;14.90;;;10.38;;
11191;SDS011;5652;48.406;10.820;2022-08-07T03:41:13;15.70;;;10.82;;
11191;SDS011;5652;48.406;10.820;2022-08-07T03:43:40;15.18;;;11.02;;
11191;SDS011;5652;48.406;10.820;2022-08-07T03:46:08;17.90;;;10.82;;
11191;SDS011;5652;48.406;10.820;2022-08-07T03:48:35;16.55;;;11.13;;
11191;SDS011;5652;48.406;10.820;2022-08-07T03:51:02;17.17;;;10.55;;
11191;SDS011;5652;48.406;10.820;2022-08-07T03:53:29;17.38;;;11.20;;
11191;SDS011;5652;48.406;10.820;2022-08-07T03:55:57;17.58;;;11.43;;
11191;SDS011;5652;48.406;10.820;2022-08-07T03:58:26;16.98;;;11.65;;
11191;SDS011;5652;48.406;10.820;2022-08-07T04:00:55;16.83;;;11.43;;
11191;SDS011;5652;48.406;10.820;2022-08-07T04:03:22;18.88;;;12.25;;
11191;SDS011;5652;48.406;10.820;2022-08-07T04:05:49;17.73;;;11.53;;
11191;SDS011;5652;48.406;10.820;2022-08-07T04:08:17;18.80;;;12.50;;
11191;SDS011;5652;48.406;10.820;2022-08-07T04:10:44;17.77;;;11.18;;
11191;SDS011;5652;48.406;10.820;2022-08-07T04:13:12;17.45;;;11.63;;
11191;SDS011;5652;48.406;10.820;2022-08-07T04:15:41;16.00;;;10.70;;
11191;SDS011;5652;48.406;10.820;2022-08-07T04:18:10;15.07;;;10.38;;
11191;SDS011;5652;48.406;10.820;2022-08-07T04:20:37;15.88;;;10.50;;
11191;SDS011;5652;48.406;10.820;2022-08-07T04:23:05;16.38;;;10.07;;
11191;SDS011;5652;48.406;10.820;2022-08-07T04:25:32;14.02;;;9.90;;
11191;SDS011;5652;48.406;10.820;2022-08-07T04:28:02;13.68;;;9.60;;
11191;SDS011;5652;48.406;10.820;2022-08-07T04:30:29;13.60;;;10.05;;
11191;SDS011;5652;48.406;10.820;2022-08-07T04:32:58;12.73;;;9.20;;
11191;SDS011;5652;48.406;10.820;2022-08-07T04:35:25;13.07;;;9.23;;
11191;SDS011;5652;48.406;10.820;2022-08-07T04:37:52;11.02;;;9.27;;
11191;SDS011;5652;48.406;10.820;2022-08-07T04:40:20;11.38;;;8.55;;
11191;SDS011;5652;48.406;10.820;2022-08-07T04:42:47;13.25;;;9.55;;
11191;SDS011;5652;48.406;10.820;2022-08-07T04:45:14;12.68;;;9.10;;
11191;SDS011;5652;48.406;10.820;2022-08-07T04:47:49;13.65;;;9.07;;
11191;SDS011;5652;48.406;10.820;2022-08-07T04:50:23;13.35;;;9.27;;
11191;SDS011;5652;48.406;10.820;2022-08-07T04:52:52;12.45;;;9.40;;
11191;SDS011;5652;48.406;10.820;2022-08-07T04:55:23;13.02;;;9.25;;
11191;SDS011;5652;48.406;10.820;2022-08-07T04:57:53;12.65;;;9.65;;
11191;SDS011;5652;48.406;10.820;2022-08-07T05:00:30;13.30;;;9.60;;
11191;SDS011;5652;48.406;10.820;2022-08-07T05:03:05;12.73;;;8.98;;
11191;SDS011;5652;48.406;10.820;2022-08-07T05:05:39;12.73;;;9.33;;
11191;SDS011;5652;48.406;10.820;2022-08-07T05:08:11;12.48;;;9.25;;
11191;SDS011;5652;48.406;10.820;2022-08-07T05:10:42;12.10;;;9.00;;
11191;SDS011;5652;48.406;10.820;2022-08-07T05:13:13;13.85;;;8.85;;
11191;SDS011;5652;48.406;10.820;2022-08-07T05:15:41;14.63;;;9.10;;
11191;SDS011;5652;48.406;10.820;2022-08-07T05:18:11;12.55;;;8.48;;
11191;SDS011;5652;48.406;10.820;2022-08-07T05:20:41;12.63;;;8.25;;
11191;SDS011;5652;48.406;10.820;2022-08-07T05:23:10;11.25;;;8.27;;
11191;SDS011;5652;48.406;10.820;2022-08-07T05:25:39;11.88;;;8.32;;
11191;SDS011;5652;48.406;10.820;2022-08-07T05:28:07;9.35;;;7.45;;
11191;SDS011;5652;48.406;10.820;2022-08-07T05:30:35;9.80;;;7.43;;
11191;SDS011;5652;48.406;10.820;2022-08-07T05:33:03;8.27;;;7.00;;
11191;SDS011;5652;48.406;10.820;2022-08-07T05:35:31;9.25;;;6.63;;
11191;SDS011;5652;48.406;10.820;2022-08-07T05:38:00;6.95;;;5.70;;
11191;SDS011;5652;48.406;10.820;2022-08-07T05:40:28;7.30;;;5.57;;
11191;SDS011;5652;48.406;10.820;2022-08-07T05:42:55;7.43;;;5.40;;
11191;SDS011;5652;48.406;10.820;2022-08-07T05:45:22;5.40;;;4.80;;
11191;SDS011;5652;48.406;10.820;2022-08-07T05:47:50;5.47;;;4.80;;
11191;SDS011;5652;48.406;10.820;2022-08-07T05:50:18;6.90;;;5.28;;
11191;SDS011;5652;48.406;10.820;2022-08-07T05:52:46;6.15;;;4.47;;
11191;SDS011;5652;48.406;10.820;2022-08-07T05:55:14;5.13;;;4.33;;
11191;SDS011;5652;48.406;10.820;2022-08-07T05:57:42;3.92;;;3.60;;
11191;SDS011;5652;48.406;10.820;2022-08-07T06:00:09;4.30;;;3.50;;
11191;SDS011;5652;48.406;10.820;2022-08-07T06:02:37;3.85;;;3.45;;
11191;SDS011;5652;48.406;10.820;2022-08-07T06:05:06;3.60;;;3.20;;
11191;SDS011;5652;48.406;10.820;2022-08-07T06:07:33;4.20;;;2.85;;
11191;SDS011;5652;48.406;10.820;2022-08-07T06:10:00;3.20;;;2.80;;
11191;SDS011;5652;48.406;10.820;2022-08-07T06:12:29;4.90;;;2.83;;
11191;SDS011;5652;48.406;10.820;2022-08-07T06:14:57;3.45;;;2.80;;
11191;SDS011;5652;48.406;10.820;2022-08-07T06:17:24;6.10;;;2.60;;
11191;SDS011;5652;48.406;10.820;2022-08-07T06:19:52;3.35;;;2.55;;
11191;SDS011;5652;48.406;10.820;2022-08-07T06:22:19;3.92;;;2.50;;
11191;SDS011;5652;48.406;10.820;2022-08-07T06:24:47;3.03;;;2.33;;
11191;SDS011;5652;48.406;10.820;2022-08-07T06:27:18;2.20;;;1.98;;
11191;SDS011;5652;48.406;10.820;2022-08-07T06:29:47;2.28;;;2.08;;
11191;SDS011;5652;48.406;10.820;2022-08-07T06:32:14;2.50;;;2.20;;
11191;SDS011;5652;48.406;10.820;2022-08-07T06:34:41;3.55;;;2.30;;
11191;SDS011;5652;48.406;10.820;2022-08-07T06:37:08;2.05;;;1.70;;
11191;SDS011;5652;48.406;10.820;2022-08-07T06:39:36;2.63;;;1.98;;
11191;SDS011;5652;48.406;10.820;2022-08-07T06:42:05;2.28;;;1.90;;
11191;SDS011;5652;48.406;10.820;2022-08-07T06:44:33;2.40;;;1.77;;
11191;SDS011;5652;48.406;10.820;2022-08-07T06:47:02;2.15;;;1.80;;
11191;SDS011;5652;48.406;10.820;2022-08-07T06:49:29;2.58;;;1.85;;
11191;SDS011;5652;48.406;10.820;2022-08-07T06:51:56;1.92;;;1.70;;
11191;SDS011;5652;48.406;10.820;2022-08-07T06:54:24;2.08;;;1.75;;
11191;SDS011;5652;48.406;10.820;2022-08-07T06:56:52;2.30;;;1.83;;
11191;SDS011;5652;48.406;10.820;2022-08-07T06:59:20;3.80;;;1.80;;
11191;SDS011;5652;48.406;10.820;2022-08-07T07:01:48;2.60;;;1.70;;
11191;SDS011;5652;48.406;10.820;2022-08-07T07:04:17;2.47;;;1.80;;
11191;SDS011;5652;48.406;10.820;2022-08-07T07:06:44;2.58;;;1.75;;
11191;SDS011;5652;48.406;10.820;2022-08-07T07:09:16;2.13;;;1.80;;
11191;SDS011;5652;48.406;10.820;2022-08-07T07:11:44;2.28;;;1.70;;
11191;SDS011;5652;48.406;10.820;2022-08-07T07:14:14;2.85;;;1.80;;
11191;SDS011;5652;48.406;10.820;2022-08-07T07:16:45;6.20;;;1.77;;
11191;SDS011;5652;48.406;10.820;2022-08-07T07:19:13;2.22;;;1.70;;
11191;SDS011;5652;48.406;10.820;2022-08-07T07:21:42;4.13;;;1.70;;
11191;SDS011;5652;48.406;10.820;2022-08-07T07:24:10;2.33;;;1.80;;
11191;SDS011;5652;48.406;10.820;2022-08-07T07:26:40;2.10;;;1.85;;
11191;SDS011;5652;48.406;10.820;2022-08-07T07:29:10;1.93;;;1.70;;
11191;SDS011;5652;48.406;10.820;2022-08-07T07:31:54;2.20;;;1.83;;
11191;SDS011;5652;48.406;10.820;2022-08-07T07:34:25;2.73;;;1.80;;
11191;SDS011;5652;48.406;10.820;2022-08-07T07:36:56;2.25;;;1.90;;
11191;SDS011;5652;48.406;10.820;2022-08-07T07:39:25;1.98;;;1.77;;
11191;SDS011;5652;48.406;10.820;2022-08-07T07:41:54;1.80;;;1.70;;
11191;SDS011;5652;48.406;10.820;2022-08-07T07:44:22;2.05;;;1.80;;
11191;SDS011;5652;48.406;10.820;2022-08-07T07:46:50;1.70;;;1.60;;
11191;SDS011;5652;48.406;10.820;2022-08-07T07:49:17;2.40;;;1.73;;
11191;SDS011;5652;48.406;10.820;2022-08-07T07:51:46;1.92;;;1.60;;
11191;SDS011;5652;48.406;10.820;2022-08-07T07:54:14;5.00;;;1.77;;
11191;SDS011;5652;48.406;10.820;2022-08-07T07:56:42;1.60;;;1.50;;
11191;SDS011;5652;48.406;10.820;2022-08-07T07:59:10;2.80;;;1.65;;
11191;SDS011;5652;48.406;10.820;2022-08-07T08:01:42;2.35;;;1.90;;
11191;SDS011;5652;48.406;10.820;2022-08-07T08:04:13;2.60;;;1.60;;
11191;SDS011;5652;48.406;10.820;2022-08-07T08:06:41;2.83;;;1.80;;
11191;SDS011;5652;48.406;10.820;2022-08-07T08:09:09;2.53;;;1.70;;
11191;SDS011;5652;48.406;10.820;2022-08-07T08:11:38;2.38;;;1.80;;
11191;SDS011;5652;48.406;10.820;2022-08-07T08:14:05;2.22;;;1.65;;
11191;SDS011;5652;48.406;10.820;2022-08-07T08:16:33;1.75;;;1.65;;
11191;SDS011;5652;48.406;10.820;2022-08-07T08:19:01;2.67;;;1.80;;
11191;SDS011;5652;48.406;10.820;2022-08-07T08:21:29;2.47;;;1.77;;
11191;SDS011;5652;48.406;10.820;2022-08-07T08:24:14;2.00;;;1.80;;
11191;SDS011;5652;48.406;10.820;2022-08-07T08:27:01;2.60;;;1.70;;
11191;SDS011;5652;48.406;10.820;2022-08-07T08:29:35;2.25;;;1.60;;
11191;SDS011;5652;48.406;10.820;2022-08-07T08:32:04;2.60;;;1.80;;
11191;SDS011;5652;48.406;10.820;2022-08-07T08:34:32;2.42;;;1.80;;
11191;SDS011;5652;48.406;10.820;2022-08-07T08:37:01;2.40;;;1.70;;
11191;SDS011;5652;48.406;10.820;2022-08-07T08:39:30;2.90;;;1.88;;
11191;SDS011;5652;48.406;10.820;2022-08-07T08:41:58;2.67;;;1.73;;
11191;SDS011;5652;48.406;10.820;2022-08-07T08:44:28;3.35;;;1.80;;
11191;SDS011;5652;48.406;10.820;2022-08-07T08:46:59;3.07;;;1.67;;
11191;SDS011;5652;48.406;10.820;2022-08-07T08:49:30;2.58;;;1.85;;
11191;SDS011;5652;48.406;10.820;2022-08-07T08:52:00;2.40;;;1.65;;
11191;SDS011;5652;48.406;10.820;2022-08-07T08:54:31;2.83;;;1.90;;
11191;SDS011;5652;48.406;10.820;2022-08-07T08:57:01;2.00;;;1.80;;
11191;SDS011;5652;48.406;10.820;2022-08-07T08:59:32;2.20;;;1.80;;
11191;SDS011;5652;48.406;10.820;2022-08-07T09:02:04;2.00;;;1.80;;
11191;SDS011;5652;48.406;10.820;2022-08-07T09:04:35;2.50;;;1.80;;
11191;SDS011;5652;48.406;10.820;2022-08-07T09:07:07;3.13;;;1.73;;
11191;SDS011;5652;48.406;10.820;2022-08-07T09:09:43;2.92;;;1.80;;
11191;SDS011;5652;48.406;10.820;2022-08-07T09:12:19;2.17;;;1.70;;
11191;SDS011;5652;48.406;10.820;2022-08-07T09:14:56;2.05;;;1.70;;
11191;SDS011;5652;48.406;10.820;2022-08-07T09:17:29;2.67;;;1.50;;
11191;SDS011;5652;48.406;10.820;2022-08-07T09:19:58;1.80;;;1.70;;
11191;SDS011;5652;48.406;10.820;2022-08-07T09:22:31;2.42;;;1.58;;
11191;SDS011;5652;48.406;10.820;2022-08-07T09:25:06;2.83;;;1.63;;
11191;SDS011;5652;48.406;10.820;2022-08-07T09:27:39;1.50;;;1.40;;
11191;SDS011;5652;48.406;10.820;2022-08-07T09:30:10;1.75;;;1.58;;
11191;SDS011;5652;48.406;10.820;2022-08-07T09:35:22;1.90;;;1.70;;
11191;SDS011;5652;48.406;10.820;2022-08-07T09:37:53;1.60;;;1.40;;
11191;SDS011;5652;48.406;10.820;2022-08-07T09:40:25;1.30;;;1.20;;
11191;SDS011;5652;48.406;10.820;2022-08-07T09:42:55;1.90;;;1.50;;
11191;SDS011;5652;48.406;10.820;2022-08-07T09:45:30;1.42;;;1.33;;
11191;SDS011;5652;48.406;10.820;2022-08-07T09:48:16;3.95;;;1.60;;
11191;SDS011;5652;48.406;10.820;2022-08-07T09:50:51;2.87;;;1.70;;
11191;SDS011;5652;48.406;10.820;2022-08-07T09:53:20;1.60;;;1.40;;
11191;SDS011;5652;48.406;10.820;2022-08-07T09:55:59;2.13;;;1.35;;
11191;SDS011;5652;48.406;10.820;2022-08-07T10:01:20;2.28;;;1.58;;
11191;SDS011;5652;48.406;10.820;2022-08-07T10:03:59;2.20;;;1.50;;
11191;SDS011;5652;48.406;10.820;2022-08-07T10:12:13;2.33;;;1.30;;
11191;SDS011;5652;48.406;10.820;2022-08-07T10:14:48;1.80;;;1.40;;
11191;SDS011;5652;48.406;10.820;2022-08-07T10:17:25;2.00;;;1.37;;
11191;SDS011;5652;48.406;10.820;2022-08-07T10:19:59;2.25;;;1.30;;
11191;SDS011;5652;48.406;10.820;2022-08-07T10:22:32;1.63;;;1.23;;
11191;SDS011;5652;48.406;10.820;2022-08-07T10:27:55;1.47;;;1.30;;
11191;SDS011;5652;48.406;10.820;2022-08-07T10:30:31;2.05;;;1.80;;
11191;SDS011;5652;48.406;10.820;2022-08-07T10:33:09;2.40;;;1.40;;
11191;SDS011;5652;48.406;10.820;2022-08-07T10:35:45;2.00;;;1.35;;
11191;SDS011;5652;48.406;10.820;2022-08-07T10:38:19;1.90;;;1.30;;
11191;SDS011;5652;48.406;10.820;2022-08-07T10:40:49;1.77;;;1.30;;
11191;SDS011;5652;48.406;10.820;2022-08-07T10:43:19;1.48;;;1.20;;
11191;SDS011;5652;48.406;10.820;2022-08-07T10:45:51;1.58;;;1.17;;
11191;SDS011;5652;48.406;10.820;2022-08-07T10:48:25;1.63;;;1.40;;
11191;SDS011;5652;48.406;10.820;2022-08-07T10:50:57;2.25;;;1.25;;
11191;SDS011;5652;48.406;10.820;2022-08-07T10:53:26;1.63;;;1.33;;
11191;SDS011;5652;48.406;10.820;2022-08-07T10:55:59;1.33;;;1.23;;
11191;SDS011;5652;48.406;10.820;2022-08-07T10:58:31;2.20;;;1.50;;
11191;SDS011;5652;48.406;10.820;2022-08-07T11:01:03;3.22;;;1.50;;
11191;SDS011;5652;48.406;10.820;2022-08-07T11:03:38;2.47;;;1.42;;
11191;SDS011;5652;48.406;10.820;2022-08-07T11:06:07;1.58;;;1.30;;
11191;SDS011;5652;48.406;10.820;2022-08-07T11:08:38;2.30;;;1.33;;
11191;SDS011;5652;48.406;10.820;2022-08-07T11:11:06;1.77;;;1.50;;
11191;SDS011;5652;48.406;10.820;2022-08-07T11:13:35;1.77;;;1.30;;
11191;SDS011;5652;48.406;10.820;2022-08-07T11:16:05;1.55;;;1.23;;
11191;SDS011;5652;48.406;10.820;2022-08-07T11:18:36;3.42;;;1.40;;
11191;SDS011;5652;48.406;10.820;2022-08-07T11:21:06;2.53;;;1.45;;
11191;SDS011;5652;48.406;10.820;2022-08-07T11:23:38;1.50;;;1.20;;
11191;SDS011;5652;48.406;10.820;2022-08-07T11:26:12;1.40;;;1.20;;
11191;SDS011;5652;48.406;10.820;2022-08-07T11:28:42;1.50;;;1.30;;
11191;SDS011;5652;48.406;10.820;2022-08-07T11:31:12;2.13;;;1.30;;
11191;SDS011;5652;48.406;10.820;2022-08-07T11:33:45;2.60;;;1.33;;
11191;SDS011;5652;48.406;10.820;2022-08-07T11:39:05;3.25;;;1.40;;
11191;SDS011;5652;48.406;10.820;2022-08-07T11:41:37;1.80;;;1.20;;
11191;SDS011;5652;48.406;10.820;2022-08-07T11:44:07;1.57;;;1.30;;
11191;SDS011;5652;48.406;10.820;2022-08-07T11:46:38;1.85;;;1.27;;
11191;SDS011;5652;48.406;10.820;2022-08-07T11:49:16;1.73;;;1.30;;
11191;SDS011;5652;48.406;10.820;2022-08-07T11:51:48;2.17;;;1.40;;
11191;SDS011;5652;48.406;10.820;2022-08-07T11:54:29;1.33;;;1.23;;
11191;SDS011;5652;48.406;10.820;2022-08-07T11:57:01;1.90;;;1.20;;
11191;SDS011;5652;48.406;10.820;2022-08-07T11:59:36;2.13;;;1.20;;
11191;SDS011;5652;48.406;10.820;2022-08-07T12:02:10;2.47;;;1.27;;
11191;SDS011;5652;48.406;10.820;2022-08-07T12:04:44;1.60;;;1.25;;
11191;SDS011;5652;48.406;10.820;2022-08-07T12:07:13;2.38;;;1.20;;
11191;SDS011;5652;48.406;10.820;2022-08-07T12:09:47;1.55;;;1.20;;
11191;SDS011;5652;48.406;10.820;2022-08-07T12:12:17;1.92;;;1.40;;
11191;SDS011;5652;48.406;10.820;2022-08-07T12:14:46;1.60;;;1.20;;
11191;SDS011;5652;48.406;10.820;2022-08-07T12:17:16;1.20;;;1.10;;
11191;SDS011;5652;48.406;10.820;2022-08-07T12:19:47;1.20;;;1.10;;
11191;SDS011;5652;48.406;10.820;2022-08-07T12:22:16;1.25;;;1.10;;
11191;SDS011;5652;48.406;10.820;2022-08-07T12:24:48;3.70;;;1.25;;
11191;SDS011;5652;48.406;10.820;2022-08-07T12:27:36;1.63;;;1.30;;
11191;SDS011;5652;48.406;10.820;2022-08-07T12:30:06;2.43;;;1.20;;
11191;SDS011;5652;48.406;10.820;2022-08-07T12:32:35;1.30;;;1.20;;
11191;SDS011;5652;48.406;10.820;2022-08-07T12:35:05;1.85;;;1.15;;
11191;SDS011;5652;48.406;10.820;2022-08-07T12:37:33;2.05;;;1.20;;
11191;SDS011;5652;48.406;10.820;2022-08-07T12:40:02;2.05;;;1.20;;
11191;SDS011;5652;48.406;10.820;2022-08-07T12:42:30;1.55;;;1.10;;
11191;SDS011;5652;48.406;10.820;2022-08-07T12:44:59;1.60;;;1.17;;
11191;SDS011;5652;48.406;10.820;2022-08-07T12:47:30;1.60;;;1.20;;
11191;SDS011;5652;48.406;10.820;2022-08-07T12:49:59;1.85;;;1.20;;
11191;SDS011;5652;48.406;10.820;2022-08-07T12:53:02;1.83;;;1.33;;
11191;SDS011;5652;48.406;10.820;2022-08-07T12:55:31;1.95;;;1.10;;
11191;SDS011;5652;48.406;10.820;2022-08-07T12:58:01;2.05;;;1.15;;
11191;SDS011;5652;48.406;10.820;2022-08-07T13:00:33;2.00;;;1.17;;
11191;SDS011;5652;48.406;10.820;2022-08-07T13:03:06;1.97;;;1.20;;
11191;SDS011;5652;48.406;10.820;2022-08-07T13:05:48;3.10;;;1.23;;
11191;SDS011;5652;48.406;10.820;2022-08-07T13:08:33;1.80;;;1.10;;
11191;SDS011;5652;48.406;10.820;2022-08-07T13:11:07;1.83;;;1.20;;
11191;SDS011;5652;48.406;10.820;2022-08-07T13:13:41;2.63;;;1.20;;
11191;SDS011;5652;48.406;10.820;2022-08-07T13:16:11;2.47;;;1.25;;
11191;SDS011;5652;48.406;10.820;2022-08-07T13:18:44;1.20;;;1.10;;
11191;SDS011;5652;48.406;10.820;2022-08-07T13:21:16;1.15;;;1.05;;
11191;SDS011;5652;48.406;10.820;2022-08-07T13:23:49;2.30;;;1.55;;
11191;SDS011;5652;48.406;10.820;2022-08-07T13:26:21;2.50;;;1.20;;
11191;SDS011;5652;48.406;10.820;2022-08-07T13:28:49;1.80;;;1.20;;
11191;SDS011;5652;48.406;10.820;2022-08-07T13:31:21;2.30;;;1.20;;
11191;SDS011;5652;48.406;10.820;2022-08-07T13:33:54;1.50;;;1.20;;
11191;SDS011;5652;48.406;10.820;2022-08-07T13:36:24;1.42;;;1.13;;
11191;SDS011;5652;48.406;10.820;2022-08-07T13:38:57;1.42;;;1.17;;
11191;SDS011;5652;48.406;10.820;2022-08-07T13:41:29;1.92;;;1.17;;
11191;SDS011;5652;48.406;10.820;2022-08-07T13:44:00;3.83;;;1.05;;
11191;SDS011;5652;48.406;10.820;2022-08-07T13:46:29;2.17;;;1.23;;
11191;SDS011;5652;48.406;10.820;2022-08-07T13:48:58;1.48;;;1.00;;
11191;SDS011;5652;48.406;10.820;2022-08-07T13:51:26;1.83;;;1.20;;
11191;SDS011;5652;48.406;10.820;2022-08-07T13:53:56;1.70;;;1.25;;
11191;SDS011;5652;48.406;10.820;2022-08-07T13:56:24;2.80;;;1.30;;
11191;SDS011;5652;48.406;10.820;2022-08-07T13:58:52;2.17;;;1.40;;
11191;SDS011;5652;48.406;10.820;2022-08-07T14:01:26;1.27;;;1.17;;
11191;SDS011;5652;48.406;10.820;2022-08-07T14:03:55;1.45;;;1.35;;
11191;SDS011;5652;48.406;10.820;2022-08-07T14:06:22;1.60;;;1.30;;
11191;SDS011;5652;48.406;10.820;2022-08-07T14:08:58;1.48;;;1.20;;
11191;SDS011;5652;48.406;10.820;2022-08-07T14:11:27;1.40;;;1.30;;
11191;SDS011;5652;48.406;10.820;2022-08-07T14:13:55;1.30;;;1.20;;
11191;SDS011;5652;48.406;10.820;2022-08-07T14:16:29;2.03;;;1.38;;
11191;SDS011;5652;48.406;10.820;2022-08-07T14:18:57;2.80;;;1.40;;
11191;SDS011;5652;48.406;10.820;2022-08-07T14:21:29;4.13;;;1.48;;
11191;SDS011;5652;48.406;10.820;2022-08-07T14:24:01;1.30;;;1.10;;
11191;SDS011;5652;48.406;10.820;2022-08-07T14:26:31;2.42;;;1.20;;
11191;SDS011;5652;48.406;10.820;2022-08-07T14:29:00;1.20;;;1.10;;
11191;SDS011;5652;48.406;10.820;2022-08-07T14:31:27;3.03;;;1.20;;
11191;SDS011;5652;48.406;10.820;2022-08-07T14:33:54;1.30;;;1.20;;
11191;SDS011;5652;48.406;10.820;2022-08-07T14:36:22;1.90;;;1.20;;
11191;SDS011;5652;48.406;10.820;2022-08-07T14:38:49;1.17;;;1.08;;
11191;SDS011;5652;48.406;10.820;2022-08-07T14:41:23;1.30;;;1.15;;
11191;SDS011;5652;48.406;10.820;2022-08-07T14:43:51;1.30;;;1.20;;
11191;SDS011;5652;48.406;10.820;2022-08-07T14:46:19;1.15;;;1.00;;
11191;SDS011;5652;48.406;10.820;2022-08-07T14:48:48;2.03;;;1.20;;
11191;SDS011;5652;48.406;10.820;2022-08-07T14:51:17;1.30;;;1.15;;
11191;SDS011;5652;48.406;10.820;2022-08-07T14:53:45;2.20;;;1.13;;
11191;SDS011;5652;48.406;10.820;2022-08-07T14:56:14;1.70;;;1.20;;
11191;SDS011;5652;48.406;10.820;2022-08-07T14:58:48;2.30;;;1.10;;
11191;SDS011;5652;48.406;10.820;2022-08-07T15:01:16;2.70;;;1.40;;
11191;SDS011;5652;48.406;10.820;2022-08-07T15:03:44;1.30;;;1.10;;
11191;SDS011;5652;48.406;10.820;2022-08-07T15:06:12;2.08;;;1.13;;
11191;SDS011;5652;48.406;10.820;2022-08-07T15:08:40;3.03;;;1.27;;
11191;SDS011;5652;48.406;10.820;2022-08-07T15:11:14;2.60;;;1.20;;
11191;SDS011;5652;48.406;10.820;2022-08-07T15:13:46;1.70;;;1.10;;